createdAt,value
2018-08-08T00:01:15.225Z,15.00
2018-08-08T00:03:46.918Z,16.00
2018-08-08T00:06:18.322Z,13.00
2018-08-08T00:08:51.659Z,14.00
2018-08-08T00:11:21.815Z,13.33
2018-08-08T00:13:51.876Z,15.00
2018-08-08T00:16:21.764Z,15.67
2018-08-08T00:18:52.575Z,14.67
2018-08-08T00:21:22.414Z,14.67
2018-08-08T00:23:53.247Z,14.00
2018-08-08T00:26:24.675Z,15.67
2018-08-08T00:28:55.338Z,16.33
2018-08-08T00:31:25.930Z,14.67
2018-08-08T00:33:56.959Z,14.00
2018-08-08T00:36:28.362Z,16.67
2018-08-08T00:39:00.074Z,15.33
2018-08-08T00:41:35.957Z,14.67
2018-08-08T00:44:05.297Z,15.33
2018-08-08T00:46:35.099Z,13.00
2018-08-08T00:49:06.168Z,13.67
2018-08-08T00:51:36.124Z,13.67
2018-08-08T00:54:06.087Z,13.67
2018-08-08T00:56:35.845Z,13.67
2018-08-08T00:59:06.545Z,14.33
2018-08-08T01:01:36.624Z,13.00
2018-08-08T01:04:06.629Z,13.33
2018-08-08T01:06:36.053Z,13.00
2018-08-08T01:09:10.244Z,12.00
2018-08-08T01:11:41.092Z,12.33
2018-08-08T01:14:11.515Z,12.00
2018-08-08T01:16:41.184Z,10.67
2018-08-08T01:19:10.667Z,12.00
2018-08-08T01:21:40.867Z,11.67
2018-08-08T01:24:10.857Z,13.67
2018-08-08T01:26:42.224Z,11.33
2018-08-08T01:29:11.634Z,11.33
2018-08-08T01:31:47.509Z,10.67
2018-08-08T01:34:17.493Z,14.00
2018-08-08T01:36:47.884Z,11.67
2018-08-08T01:39:17.228Z,11.33
2018-08-08T01:41:47.912Z,12.33
2018-08-08T01:44:17.895Z,14.33
2018-08-08T01:46:47.976Z,14.00
2018-08-08T01:49:17.949Z,15.67
2018-08-08T01:51:48.288Z,13.33
2018-08-08T01:54:20.233Z,13.67
2018-08-08T01:56:50.435Z,13.33
2018-08-08T01:59:19.786Z,14.00
2018-08-08T02:01:50.939Z,15.00
2018-08-08T02:04:21.946Z,14.00
2018-08-08T02:06:51.988Z,15.67
2018-08-08T02:09:22.090Z,13.00
2018-08-08T02:11:52.662Z,15.00
2018-08-08T02:14:22.064Z,15.67
2018-08-08T02:16:54.832Z,14.00
2018-08-08T02:19:25.559Z,17.00
2018-08-08T02:22:03.066Z,14.00
2018-08-08T02:24:39.172Z,15.67
2018-08-08T02:27:08.531Z,13.00
2018-08-08T02:29:38.784Z,15.00
2018-08-08T02:32:09.143Z,14.67
2018-08-08T02:34:42.629Z,16.00
2018-08-08T02:37:13.019Z,13.33
2018-08-08T02:39:43.819Z,15.33
2018-08-08T02:42:14.566Z,15.67
2018-08-08T02:44:46.431Z,14.67
2018-08-08T02:47:16.567Z,15.33
2018-08-08T02:52:22.019Z,17.25
2018-08-08T02:54:52.043Z,17.00
2018-08-08T02:57:23.834Z,16.00
2018-08-08T02:59:54.873Z,15.33
2018-08-08T03:02:25.944Z,16.00
2018-08-08T03:04:57.849Z,17.33
2018-08-08T03:07:29.079Z,17.00
2018-08-08T03:12:35.008Z,14.63
2018-08-08T03:15:05.856Z,16.00
2018-08-08T03:17:35.860Z,15.33
2018-08-08T03:20:06.492Z,14.00
2018-08-08T03:22:36.377Z,15.00
2018-08-08T03:25:07.544Z,13.67
2018-08-08T03:27:37.744Z,14.00
2018-08-08T03:30:16.289Z,12.33
2018-08-08T03:32:51.686Z,12.33
2018-08-08T03:35:21.687Z,14.00
2018-08-08T03:37:52.272Z,13.00
2018-08-08T03:40:22.060Z,15.67
2018-08-08T03:42:53.300Z,14.00
2018-08-08T03:45:26.695Z,16.67
2018-08-08T03:47:56.901Z,16.33
2018-08-08T03:50:27.647Z,15.33
2018-08-08T03:52:57.897Z,16.00
2018-08-08T03:55:27.213Z,15.00
2018-08-08T03:57:57.174Z,15.67
2018-08-08T04:00:26.673Z,14.33
2018-08-08T04:02:56.637Z,15.67
2018-08-08T04:05:27.636Z,13.67
2018-08-08T04:07:57.648Z,13.00
2018-08-08T04:10:27.873Z,15.00
2018-08-08T04:12:57.787Z,12.33
2018-08-08T04:15:27.780Z,14.00
2018-08-08T04:17:58.139Z,15.00
2018-08-08T04:20:28.094Z,15.00
2018-08-08T04:22:57.455Z,14.00
2018-08-08T04:25:28.907Z,14.00
2018-08-08T04:27:59.954Z,14.00
2018-08-08T04:30:31.288Z,13.67
2018-08-08T04:33:01.831Z,14.00
2018-08-08T04:35:31.920Z,12.67
2018-08-08T04:38:01.997Z,14.33
2018-08-08T04:40:32.462Z,13.67
2018-08-08T04:43:01.813Z,15.00
2018-08-08T04:45:34.479Z,14.00
2018-08-08T04:48:04.801Z,15.00
2018-08-08T04:50:35.549Z,14.33
2018-08-08T04:53:06.029Z,12.33
2018-08-08T04:55:37.002Z,14.00
2018-08-08T04:58:07.407Z,13.00
2018-08-08T05:00:37.497Z,11.33
2018-08-08T05:03:08.486Z,13.00
2018-08-08T05:05:38.521Z,12.33
2018-08-08T05:08:09.258Z,12.67
2018-08-08T05:10:40.457Z,12.33
2018-08-08T05:13:12.785Z,12.33
2018-08-08T05:15:44.903Z,12.67
2018-08-08T05:18:14.250Z,8.33
2018-08-08T05:20:45.102Z,8.67
2018-08-08T05:23:17.796Z,6.33
2018-08-08T05:25:48.273Z,8.00
2018-08-08T05:28:18.115Z,7.00
2018-08-08T05:30:47.831Z,6.67
2018-08-08T05:33:19.347Z,6.00
2018-08-08T05:35:50.403Z,6.50
2018-08-08T05:38:23.062Z,6.00
2018-08-08T05:40:56.008Z,6.75
2018-08-08T05:43:28.274Z,4.33
2018-08-08T05:46:00.545Z,4.33
2018-08-08T05:48:32.798Z,6.50
2018-08-08T05:51:04.817Z,4.00
2018-08-08T05:53:36.748Z,6.60
2018-08-08T05:56:07.880Z,4.00
2018-08-08T05:58:40.534Z,5.33
2018-08-08T06:01:12.406Z,6.00
2018-08-08T06:03:44.837Z,5.33
2018-08-08T06:06:16.669Z,4.00
2018-08-08T06:08:48.028Z,3.00
2018-08-08T06:11:20.388Z,3.67
2018-08-08T06:13:52.849Z,4.00
2018-08-08T06:16:25.395Z,4.00
2018-08-08T06:18:57.278Z,4.00
2018-08-08T06:21:30.712Z,4.40
2018-08-08T06:24:01.498Z,4.00
2018-08-08T06:26:34.129Z,3.80
2018-08-08T06:29:06.145Z,5.00
2018-08-08T06:31:40.032Z,3.00
2018-08-08T06:34:21.167Z,5.00
2018-08-08T06:36:52.714Z,4.00
2018-08-08T06:39:24.643Z,5.00
2018-08-08T06:41:57.522Z,5.00
2018-08-08T06:44:29.505Z,4.33
2018-08-08T06:47:03.890Z,4.33
2018-08-08T06:49:39.207Z,5.00
2018-08-08T06:52:11.699Z,5.00
2018-08-08T06:54:46.576Z,4.00
2018-08-08T06:57:19.554Z,5.00
2018-08-08T06:59:49.844Z,4.67
2018-08-08T07:02:20.844Z,4.80
2018-08-08T07:04:53.210Z,4.00
2018-08-08T07:07:27.722Z,4.80
2018-08-08T07:10:02.415Z,4.00
2018-08-08T07:12:34.449Z,5.00
2018-08-08T07:15:06.833Z,5.00
2018-08-08T07:17:39.031Z,5.00
2018-08-08T07:20:12.540Z,4.20
2018-08-08T07:22:44.124Z,4.60
2018-08-08T07:25:18.215Z,5.80
2018-08-08T07:27:51.483Z,5.67
2018-08-08T07:30:26.401Z,6.00
2018-08-08T07:32:57.548Z,6.33
2018-08-08T07:35:29.439Z,6.00
2018-08-08T07:38:03.108Z,8.00
2018-08-08T07:40:33.378Z,7.33
2018-08-08T07:43:05.496Z,5.80
2018-08-08T07:45:38.066Z,6.00
2018-08-08T07:48:08.326Z,5.00
2018-08-08T07:50:38.982Z,5.00
2018-08-08T07:53:10.143Z,5.00
2018-08-08T07:55:42.396Z,5.40
2018-08-08T07:58:16.203Z,4.00
2018-08-08T08:00:48.136Z,5.00
2018-08-08T08:03:21.376Z,4.00
2018-08-08T08:05:54.069Z,5.00
2018-08-08T08:08:24.763Z,4.33
2018-08-08T08:10:57.124Z,5.00
2018-08-08T08:13:28.540Z,6.00
2018-08-08T08:16:00.686Z,5.00
2018-08-08T08:18:33.440Z,5.00
2018-08-08T08:21:06.430Z,5.00
2018-08-08T08:23:41.808Z,4.00
2018-08-08T08:26:20.412Z,5.00
2018-08-08T08:28:55.214Z,4.20
2018-08-08T08:31:27.007Z,3.80
2018-08-08T08:34:02.201Z,4.33
2018-08-08T08:36:40.707Z,4.00
2018-08-08T08:39:15.540Z,4.00
2018-08-08T08:41:54.832Z,4.60
2018-08-08T08:44:26.623Z,5.33
2018-08-08T08:46:57.547Z,5.00
2018-08-08T08:49:33.333Z,5.00
2018-08-08T08:52:06.332Z,4.00
2018-08-08T08:54:37.305Z,4.00
2018-08-08T08:57:10.408Z,4.60
2018-08-08T08:59:41.800Z,5.00
2018-08-08T09:02:14.320Z,5.00
2018-08-08T09:04:45.572Z,6.00
2018-08-08T09:07:17.394Z,5.00
2018-08-08T09:09:51.372Z,5.67
2018-08-08T09:12:23.324Z,5.60
2018-08-08T09:15:00.154Z,5.00
2018-08-08T09:17:33.588Z,5.40
2018-08-08T09:20:05.748Z,5.00
2018-08-08T09:22:38.756Z,5.00
2018-08-08T09:25:11.918Z,5.00
2018-08-08T09:27:42.904Z,5.00
2018-08-08T09:30:16.408Z,4.00
2018-08-08T09:32:48.682Z,4.00
2018-08-08T09:35:19.053Z,5.00
2018-08-08T09:37:56.680Z,4.00
2018-08-08T09:40:28.466Z,4.00
2018-08-08T09:43:00.705Z,4.80
2018-08-08T09:45:33.100Z,4.00
2018-08-08T09:48:05.455Z,4.20
2018-08-08T09:50:37.283Z,4.00
2018-08-08T09:53:08.482Z,4.40
2018-08-08T09:55:42.418Z,5.00
2018-08-08T09:58:15.729Z,5.00
2018-08-08T10:00:52.807Z,4.60
2018-08-08T10:03:30.535Z,3.80
2018-08-08T10:06:02.348Z,4.00
2018-08-08T10:08:35.754Z,3.40
2018-08-08T10:11:07.644Z,4.67
2018-08-08T10:13:39.447Z,3.60
2018-08-08T10:16:11.565Z,5.00
2018-08-08T10:18:43.283Z,5.00
2018-08-08T10:21:14.316Z,4.00
2018-08-08T10:23:46.981Z,4.40
2018-08-08T10:26:19.738Z,3.00
2018-08-08T10:28:54.569Z,4.60
2018-08-08T10:31:27.837Z,4.00
2018-08-08T10:34:02.542Z,4.00
2018-08-08T10:36:34.462Z,5.00
2018-08-08T10:39:12.706Z,3.00
2018-08-08T10:41:45.305Z,4.00
2018-08-08T10:44:17.765Z,3.20
2018-08-08T10:46:51.259Z,4.00
2018-08-08T10:49:23.119Z,2.00
2018-08-08T10:51:54.265Z,2.00
2018-08-08T10:54:26.127Z,2.00
2018-08-08T10:59:28.819Z,2.60
2018-08-08T11:01:59.945Z,2.00
2018-08-08T11:04:38.329Z,2.00
2018-08-08T11:15:40.349Z,2.60
2018-08-08T11:18:12.937Z,2.00
2018-08-08T11:20:48.411Z,1.80
2018-08-08T11:23:21.938Z,2.20
2018-08-08T11:25:54.565Z,2.00
2018-08-08T11:28:29.911Z,2.80
2018-08-08T11:31:03.645Z,2.80
2018-08-08T11:33:41.734Z,4.00
2018-08-08T11:38:52.212Z,3.00
2018-08-08T11:41:24.212Z,4.20
2018-08-08T11:43:55.749Z,4.00
2018-08-08T11:46:26.070Z,5.33
2018-08-08T11:48:59.014Z,5.33
2018-08-08T11:51:35.267Z,5.33
2018-08-08T11:54:09.474Z,5.67
2018-08-08T11:56:41.765Z,6.00
2018-08-08T11:59:14.200Z,6.33
2018-08-08T12:01:47.883Z,7.00
2018-08-08T12:04:19.690Z,7.75
2018-08-08T12:06:51.146Z,7.00
2018-08-08T12:09:24.648Z,6.00
2018-08-08T12:11:55.005Z,7.00
2018-08-08T12:14:27.280Z,7.00
2018-08-08T12:16:58.823Z,6.33
2018-08-08T12:19:30.617Z,8.00
2018-08-08T12:22:01.395Z,8.00
2018-08-08T12:24:37.104Z,8.00
2018-08-08T12:27:09.348Z,7.33
2018-08-08T12:29:41.011Z,6.67
2018-08-08T12:32:16.330Z,7.33
2018-08-08T12:34:51.263Z,7.33
2018-08-08T12:37:27.756Z,8.33
2018-08-08T12:39:58.770Z,7.33
2018-08-08T12:42:30.000Z,8.00
2018-08-08T12:45:15.711Z,8.00
2018-08-08T12:47:47.782Z,8.33
2018-08-08T12:50:23.993Z,8.00
2018-08-08T12:52:57.077Z,8.33
2018-08-08T12:55:29.415Z,9.00
2018-08-08T13:03:47.987Z,9.00
2018-08-08T13:06:21.121Z,8.67
2018-08-08T13:08:53.411Z,8.33
2018-08-08T13:11:26.611Z,8.00
2018-08-08T13:16:45.757Z,8.00
2018-08-08T13:19:22.973Z,8.00
2018-08-08T13:21:54.533Z,9.00
2018-08-08T13:24:25.675Z,8.33
2018-08-08T13:27:00.454Z,9.00
2018-08-08T13:29:32.031Z,8.67
2018-08-08T13:32:05.047Z,8.33
2018-08-08T13:34:35.311Z,8.67
2018-08-08T13:39:48.191Z,9.33
2018-08-08T13:42:23.745Z,9.00
2018-08-08T13:44:55.676Z,9.00
2018-08-08T13:47:27.494Z,8.67
2018-08-08T13:50:00.279Z,8.67
2018-08-08T13:52:32.054Z,10.00
2018-08-08T13:55:05.563Z,10.00
2018-08-08T13:57:36.697Z,10.00
2018-08-08T14:00:07.701Z,10.00
2018-08-08T14:02:38.804Z,11.00
2018-08-08T14:05:09.951Z,10.33
2018-08-08T14:07:41.019Z,10.00
2018-08-08T14:10:14.271Z,10.00
2018-08-08T14:12:46.751Z,9.33
2018-08-08T14:15:16.893Z,12.00
2018-08-08T14:17:47.829Z,11.00
2018-08-08T14:20:20.556Z,10.67
2018-08-08T14:22:54.041Z,11.33
2018-08-08T14:25:33.666Z,11.00
2018-08-08T14:28:04.032Z,11.00
2018-08-08T14:30:34.632Z,10.67
2018-08-08T14:33:08.603Z,12.33
2018-08-08T14:35:39.568Z,11.00
2018-08-08T14:38:09.186Z,12.00
2018-08-08T14:40:40.591Z,11.00
2018-08-08T14:43:10.627Z,11.00
2018-08-08T14:45:40.725Z,10.33
2018-08-08T14:48:11.375Z,11.00
2018-08-08T14:50:43.126Z,11.67
2018-08-08T14:53:13.896Z,9.67
2018-08-08T14:55:43.635Z,9.67
2018-08-08T14:58:16.907Z,7.67
2018-08-08T15:00:48.804Z,10.67
2018-08-08T15:03:18.794Z,11.00
2018-08-08T15:05:52.129Z,10.33
2018-08-08T15:08:22.855Z,10.33
2018-08-08T15:10:56.495Z,11.33
2018-08-08T15:13:27.905Z,10.00
2018-08-08T15:15:57.867Z,11.00
2018-08-08T15:18:28.658Z,11.00
2018-08-08T15:21:01.443Z,12.00
2018-08-08T15:23:34.159Z,12.67
2018-08-08T15:26:06.366Z,12.00
2018-08-08T15:28:37.364Z,12.67
2018-08-08T15:31:10.325Z,12.33
2018-08-08T15:33:41.552Z,10.67
2018-08-08T15:36:12.823Z,12.67
2018-08-08T15:38:43.452Z,12.33
2018-08-08T15:41:14.524Z,10.33
2018-08-08T15:43:44.644Z,11.67
2018-08-08T15:46:15.046Z,11.00
2018-08-08T15:48:44.402Z,11.33
2018-08-08T15:51:19.283Z,11.67
2018-08-08T15:53:49.655Z,11.67
2018-08-08T15:56:20.434Z,11.67
2018-08-08T15:58:51.785Z,11.67
2018-08-08T16:01:22.774Z,11.67
2018-08-08T16:03:53.351Z,12.00
2018-08-08T16:06:27.745Z,12.00
2018-08-08T16:09:01.569Z,12.67
2018-08-08T16:11:34.498Z,12.33
2018-08-08T16:14:03.883Z,12.00
2018-08-08T16:16:37.596Z,11.67
2018-08-08T16:19:09.076Z,12.33
2018-08-08T16:21:40.379Z,11.33
2018-08-08T16:24:10.562Z,12.00
2018-08-08T16:26:43.013Z,11.00
2018-08-08T16:29:13.867Z,11.33
2018-08-08T16:31:44.241Z,13.00
2018-08-08T16:34:13.645Z,13.00
2018-08-08T16:36:44.275Z,12.67
2018-08-08T16:39:16.618Z,12.00
2018-08-08T16:41:48.178Z,12.67
2018-08-08T16:44:20.259Z,13.67
2018-08-08T16:46:51.591Z,12.33
2018-08-08T16:49:22.650Z,13.00
2018-08-08T16:51:53.158Z,12.33
2018-08-08T16:54:23.214Z,12.33
2018-08-08T16:56:54.123Z,12.67
2018-08-08T16:59:23.782Z,12.00
2018-08-08T17:01:54.571Z,13.67
2018-08-08T17:04:26.675Z,12.00
2018-08-08T17:06:58.930Z,14.00
2018-08-08T17:09:30.627Z,11.00
2018-08-08T17:12:01.153Z,12.00
2018-08-08T17:14:31.451Z,11.67
2018-08-08T17:17:01.893Z,11.00
2018-08-08T17:19:32.061Z,12.67
2018-08-08T17:22:02.655Z,11.00
2018-08-08T17:24:32.051Z,11.00
2018-08-08T17:27:03.566Z,11.00
2018-08-08T17:29:33.646Z,11.67
2018-08-08T17:32:06.954Z,12.00
2018-08-08T17:34:39.544Z,10.67
2018-08-08T17:37:12.729Z,10.33
2018-08-08T17:39:45.463Z,10.67
2018-08-08T17:42:20.010Z,10.00
2018-08-08T17:44:52.382Z,11.67
2018-08-08T17:47:25.685Z,10.67
2018-08-08T17:49:57.693Z,10.67
2018-08-08T17:52:27.431Z,10.00
2018-08-08T17:54:57.304Z,9.33
2018-08-08T17:57:26.635Z,10.00
2018-08-08T17:59:57.112Z,12.00
2018-08-08T18:02:29.071Z,11.33
2018-08-08T18:04:59.696Z,12.00
2018-08-08T18:07:31.380Z,11.00
2018-08-08T18:10:02.500Z,11.00
2018-08-08T18:12:34.610Z,11.00
2018-08-08T18:15:08.992Z,11.00
2018-08-08T18:17:40.030Z,12.67
2018-08-08T18:20:11.606Z,12.33
2018-08-08T18:22:41.606Z,11.67
2018-08-08T18:25:12.672Z,10.00
2018-08-08T18:27:45.732Z,12.00
2018-08-08T18:33:02.015Z,12.33
2018-08-08T18:35:36.411Z,13.00
2018-08-08T18:38:13.783Z,11.33
2018-08-08T18:40:56.048Z,12.00
2018-08-08T18:43:30.393Z,12.33
2018-08-08T18:46:03.229Z,12.67
2018-08-08T18:48:37.855Z,11.33
2018-08-08T18:51:09.822Z,12.67
2018-08-08T18:53:39.930Z,11.33
2018-08-08T18:56:10.726Z,10.00
2018-08-08T18:58:43.514Z,12.00
2018-08-08T19:01:13.175Z,13.00
2018-08-08T19:04:51.934Z,12.67
2018-08-08T19:07:26.650Z,12.67
2018-08-08T19:09:59.190Z,13.00
2018-08-08T19:12:30.476Z,11.00
2018-08-08T19:15:05.516Z,12.33
2018-08-08T19:17:36.268Z,12.67
2018-08-08T19:20:08.283Z,10.67
2018-08-08T19:22:39.562Z,13.00
2018-08-08T19:25:09.843Z,13.67
2018-08-08T19:27:39.204Z,14.00
2018-08-08T19:30:13.312Z,13.00
2018-08-08T19:32:45.088Z,13.00
2018-08-08T19:35:16.659Z,14.00
2018-08-08T19:37:48.850Z,12.00
2018-08-08T19:40:20.302Z,12.00
2018-08-08T19:42:50.408Z,13.33
2018-08-08T19:45:21.528Z,12.33
2018-08-08T19:47:53.222Z,12.33
2018-08-08T19:50:25.987Z,12.67
2018-08-08T19:52:57.667Z,13.00
2018-08-08T19:55:28.411Z,13.33
2018-08-08T19:57:58.628Z,14.00
2018-08-08T20:00:30.996Z,12.67
2018-08-08T20:03:01.792Z,13.00
2018-08-08T20:05:33.366Z,12.00
2018-08-08T20:08:03.327Z,13.00
2018-08-08T20:13:14.059Z,13.67
2018-08-08T20:15:46.356Z,14.33
2018-08-08T20:18:19.920Z,13.00
2018-08-08T20:20:52.895Z,13.00
2018-08-08T20:23:22.671Z,12.00
2018-08-08T20:25:54.436Z,12.00
2018-08-08T20:28:25.843Z,12.67
2018-08-08T20:30:59.710Z,12.00
2018-08-08T20:33:29.793Z,13.00
2018-08-08T20:36:01.288Z,12.33
2018-08-08T20:38:32.328Z,14.00
2018-08-08T20:41:02.499Z,12.33
2018-08-08T20:43:37.679Z,13.33
2018-08-08T20:46:07.834Z,12.00
2018-08-08T20:48:37.187Z,13.33
2018-08-08T20:51:08.262Z,15.00
2018-08-08T20:53:38.599Z,13.00
2018-08-08T20:56:09.109Z,12.33
2018-08-08T20:58:39.714Z,13.67
2018-08-08T21:01:09.401Z,15.33
2018-08-08T21:03:41.698Z,14.00
2018-08-08T21:06:15.314Z,12.33
2018-08-08T21:08:44.791Z,13.00
2018-08-08T21:11:14.139Z,13.67
2018-08-08T21:13:44.777Z,13.33
2018-08-08T21:16:19.855Z,14.00
2018-08-08T21:18:51.498Z,13.00
2018-08-08T21:21:23.597Z,14.33
2018-08-08T21:23:54.507Z,14.00
2018-08-08T21:26:24.786Z,13.00
2018-08-08T21:28:54.459Z,13.00
2018-08-08T21:31:24.474Z,12.67
2018-08-08T21:33:57.961Z,13.00
2018-08-08T21:36:27.966Z,12.00
2018-08-08T21:38:57.887Z,12.00
2018-08-08T21:41:28.214Z,13.67
2018-08-08T21:43:58.342Z,15.67
2018-08-08T21:46:30.014Z,13.33
2018-08-08T21:49:00.670Z,13.33
2018-08-08T21:51:30.647Z,13.00
2018-08-08T21:54:11.434Z,12.00
2018-08-08T21:56:53.589Z,13.33
2018-08-08T21:59:35.196Z,13.00
2018-08-08T22:02:19.725Z,15.00
2018-08-08T22:05:01.446Z,13.00
2018-08-08T22:07:42.423Z,13.00
2018-08-08T22:10:24.602Z,13.00
2018-08-08T22:13:05.436Z,12.00
2018-08-08T22:16:46.451Z,16.00
2018-08-08T22:19:28.752Z,14.33
2018-08-08T22:21:59.275Z,14.00
2018-08-08T22:24:28.818Z,14.67
2018-08-08T22:26:58.730Z,14.67
2018-08-08T22:29:29.364Z,16.33
2018-08-08T22:31:58.823Z,16.00
2018-08-08T22:34:29.443Z,15.00
2018-08-08T22:36:59.519Z,15.67
2018-08-08T22:39:31.046Z,15.33
2018-08-08T22:42:01.139Z,14.33
2018-08-08T22:44:30.470Z,16.00
2018-08-08T22:47:00.192Z,15.00
2018-08-08T22:49:30.255Z,16.33
2018-08-08T22:52:04.604Z,15.00
2018-08-08T22:54:35.078Z,15.00
2018-08-08T22:57:05.728Z,15.33
2018-08-08T22:59:38.959Z,16.00
2018-08-08T23:02:08.380Z,15.67
2018-08-08T23:04:39.807Z,15.00
2018-08-08T23:07:11.293Z,15.67
2018-08-08T23:09:42.276Z,14.33
2018-08-08T23:12:13.590Z,14.00
2018-08-08T23:14:44.752Z,16.67
2018-08-08T23:17:15.249Z,14.67
2018-08-08T23:19:44.976Z,15.00
2018-08-08T23:22:25.955Z,15.00
2018-08-08T23:24:55.645Z,15.00
2018-08-08T23:27:25.698Z,16.67
2018-08-08T23:29:56.390Z,14.33
2018-08-08T23:32:26.728Z,14.33
2018-08-08T23:34:57.914Z,15.67
2018-08-08T23:37:27.274Z,14.67
2018-08-08T23:39:58.326Z,16.33
2018-08-08T23:42:31.134Z,14.00
2018-08-08T23:45:00.452Z,13.67
2018-08-08T23:47:32.572Z,15.00
2018-08-08T23:50:02.579Z,13.33
2018-08-08T23:52:34.079Z,14.00
2018-08-08T23:55:04.491Z,15.33
2018-08-08T23:57:34.486Z,15.33
